Flight Track Log - Related Links

Times and Time Zones

All times are in EDT time to prevent confusion due to time zone crossing. See the SWA2166 flight status page for this flight to view local times or setup timezone preferences in your user account.

Time Position Orientation Groundspeed Altitude Reporting Facility
EDT Latitude Longitude Course Direction KTS MPH feet Rate Location/Type
Mon 01:27:53 PM 41.7311 -71.4247 59° Northeast 165 190 500  Level Boston Center
Mon 01:28:29 PM 41.7472 -71.3883 59° Northeast 184 212 1,800 2,506 Climbing Boston Center
Mon 01:29:12 PM 41.7656 -71.3267 68° East 229 264 3,800 2,548 Climbing Boston Center
Mon 01:29:42 PM 41.7444 -71.2911 129° Southeast 264 304 4,900 2,483 Climbing Boston Center
Mon 01:30:10 PM 41.7211 -71.2636 139° Southeast 321 369 6,200 3,341 Climbing Boston Center
Mon 01:31:10 PM 41.6433 -71.2122 154° Southeast 308 354 9,800 3,000 Climbing Boston Center
Mon 01:32:10 PM 41.5686 -71.2219 186° South 293 337 12,200 3,050 Climbing Boston Center
Mon 01:33:10 PM 41.4747 -71.2267 182° South 308 354 15,900 3,223 Climbing Boston Center
Mon 01:34:11 PM 41.3853 -71.2339 183° South 327 376 18,700 2,311 Climbing Boston Center
Mon 01:35:12 PM 41.2978 -71.2436 185° South 337 388 20,600 1,664 Climbing Boston Center
Mon 01:36:10 PM 41.1833 -71.2625 187° South 376 433 22,000 1,932 Climbing Boston Center
Mon 01:37:10 PM 41.1136 -71.3683 229° Southwest 364 419 24,400 2,033 Climbing Boston Center
Mon 01:38:11 PM 41.0500 -71.4906 235° Southwest 370 426 26,100 1,672 Climbing Boston Center
Mon 01:39:12 PM 40.9803 -71.6208 235° Southwest 408 470 27,800 1,884 Climbing Boston Center
Mon 01:40:12 PM 40.9125 -71.7536 236° Southwest 435 501 29,900 2,339 Climbing Boston Center
Mon 01:41:10 PM 40.8486 -71.8831 237° Southwest 442 509 32,400 2,118 Climbing Boston Center
Mon 01:42:11 PM 40.7700 -72.0153 232° Southwest 434 499 34,100 1,759 Climbing Boston Center
Mon 01:43:23 PM 40.6953 -72.1389 231° Southwest 434 499 36,300 1,759 Climbing Boston Center
Mon 01:44:24 PM 40.6206 -72.2814 235° Southwest 420 483 38,000 857 Climbing Boston Center
Mon 01:45:22 PM 40.5622 -72.3964 236° Southwest 405 466 38,000  Level Boston Center
Mon 01:46:22 PM 40.4997 -72.5083 234° Southwest 399 459 38,000  Level Boston Center
Mon 01:47:22 PM 40.4372 -72.6228 234° Southwest 399 459 38,000 347 Level Boston Center
Mon 01:48:23 PM 40.3786 -72.7397 237° Southwest 399 459 38,700 738 Climbing Boston Center
Mon 01:49:24 PM 40.3136 -72.8539 233° Southwest 394 453 39,500 400 Climbing Boston Center
Mon 01:51:38 PM 40.1733 -73.1156 235° Southwest 388 447 40,000 155 Climbing Washington Center
Mon 01:52:38 PM 40.1111 -73.2317 235° Southwest 393 452 40,000  Level Washington Center
Mon 01:53:38 PM 40.0317 -73.3317 224° Southwest 393 452 40,000  Level Washington Center
Mon 01:54:38 PM 39.9461 -73.4264 220° Southwest 399 459 40,000  Level Washington Center
Mon 01:55:38 PM 39.8622 -73.5156 219° Southwest 399 459 40,000  Level Washington Center
Mon 01:56:38 PM 39.7803 -73.6097 221° Southwest 399 459 40,000  Level Washington Center
Mon 01:57:38 PM 39.6922 -73.6983 218° Southwest 399 459 40,000  Level Washington Center
Mon 01:58:38 PM 39.6061 -73.7817 217° Southwest 399 459 40,000  Level Washington Center
Mon 01:59:38 PM 39.5175 -73.8644 216° Southwest 399 459 40,000  Level Washington Center
Mon 02:00:38 PM 39.4272 -73.9500 216° Southwest 399 459 40,000  Level Washington Center
Mon 02:01:38 PM 39.3344 -74.0381 216° Southwest 404 465 40,000  Level Washington Center
Mon 02:02:38 PM 39.2461 -74.1228 217° Southwest 404 465 40,000  Level Washington Center
Mon 02:03:38 PM 39.1553 -74.2106 217° Southwest 404 465 40,000  Level Washington Center
Mon 02:04:38 PM 39.0625 -74.2950 215° Southwest 404 465 40,000  Level Washington Center
Mon 02:05:38 PM 38.9739 -74.3822 217° Southwest 404 465 40,000  Level Washington Center
Mon 02:06:38 PM 38.8808 -74.4664 215° Southwest 404 465 40,000  Level Washington Center
Mon 02:07:38 PM 38.7919 -74.5503 216° Southwest 409 471 40,000  Level Washington Center
Mon 02:08:38 PM 38.7008 -74.6339 216° Southwest 403 464 40,000  Level Washington Center
Mon 02:09:38 PM 38.6097 -74.7203 217° Southwest 409 471 40,000  Level Washington Center
Mon 02:10:38 PM 38.5186 -74.8036 216° Southwest 409 471 40,000  Level Washington Center
Mon 02:11:38 PM 38.4253 -74.8894 216° Southwest 409 471 40,000  Level Washington Center
Mon 02:12:38 PM 38.3342 -74.9750 216° Southwest 409 471 40,000  Level Washington Center
Mon 02:13:38 PM 38.2531 -75.0497 216° Southwest 409 471 40,000  Level Washington Center
Mon 02:14:38 PM 38.1617 -75.1350 216° Southwest 409 471 40,000  Level Washington Center
Mon 02:15:38 PM 38.0725 -75.2197 217° Southwest 409 471 40,000  Level Washington Center
Mon 02:16:38 PM 37.9789 -75.3047 216° Southwest 409 471 40,000  Level Washington Center
Mon 02:17:38 PM 37.8850 -75.3839 214° Southwest 409 471 40,000  Level Washington Center
Mon 02:18:38 PM 37.7956 -75.4683 217° Southwest 404 465 40,000  Level Washington Center
Mon 02:19:38 PM 37.7039 -75.5497 215° Southwest 404 465 40,000  Level Washington Center
Mon 02:20:38 PM 37.5997 -75.6389 214° Southwest 409 471 40,000  Level Washington Center
Mon 02:21:38 PM 37.5056 -75.7228 215° Southwest 409 471 40,000  Level Washington Center
Mon 02:22:38 PM 37.4139 -75.8089 217° Southwest 409 471 40,000  Level Washington Center
Mon 02:23:38 PM 37.3219 -75.8894 215° Southwest 409 471 40,000  Level Washington Center
Mon 02:24:38 PM 37.2278 -75.9728 215° Southwest 409 471 40,000  Level Washington Center
Mon 02:25:38 PM 37.1314 -76.0583 215° Southwest 414 476 40,000  Level Washington Center
Mon 02:26:38 PM 37.0372 -76.1408 215° Southwest 414 476 40,000  Level Washington Center
Mon 02:27:38 PM 36.9472 -76.2131 213° Southwest 420 483 40,000  Level Washington Center
Mon 02:28:38 PM 36.8508 -76.2928 214° Southwest 420 483 40,000  Level Washington Center
Mon 02:29:38 PM 36.7586 -76.3747 215° Southwest 420 483 40,000  Level Washington Center
Mon 02:30:38 PM 36.6536 -76.4697 216° Southwest 420 483 40,000  Level Washington Center
Mon 02:31:38 PM 36.5592 -76.5539 216° Southwest 426 490 40,000  Level Washington Center
Mon 02:32:38 PM 36.4644 -76.6328 214° Southwest 426 490 40,000  Level Washington Center
Mon 02:33:38 PM 36.3656 -76.7167 214° Southwest 426 490 40,000  Level Washington Center
Mon 02:34:38 PM 36.2711 -76.7978 215° Southwest 426 490 40,000  Level Washington Center
Mon 02:35:38 PM 36.1742 -76.8786 214° Southwest 426 490 40,000  Level Washington Center
Mon 02:36:38 PM 36.0772 -76.9619 215° Southwest 426 490 40,000  Level Washington Center
Mon 02:37:38 PM 35.9825 -77.0422 214° Southwest 426 490 40,000  Level Washington Center
Mon 02:38:38 PM 35.8917 -77.1356 220° Southwest 426 490 40,000  Level Washington Center
Mon 02:39:38 PM 35.8194 -77.2186 223° Southwest 412 474 40,000  Level Washington Center
Mon 02:40:38 PM 35.7264 -77.3064 217° Southwest 412 474 40,000  Level Washington Center
Mon 02:41:38 PM 35.6375 -77.3964 219° Southwest 412 474 40,000  Level Washington Center
Mon 02:42:38 PM 35.5486 -77.4864 219° Southwest 417 480 40,000  Level Washington Center
Mon 02:43:38 PM 35.4594 -77.5733 218° Southwest 417 480 40,000  Level Washington Center
Mon 02:44:38 PM 35.3703 -77.6656 220° Southwest 417 480 40,000  Level Washington Center
Mon 02:45:38 PM 35.2792 -77.7522 218° Southwest 417 480 40,000  Level Washington Center
Mon 02:46:38 PM 35.1897 -77.8414 219° Southwest 423 487 40,000  Level Washington Center
Mon 02:47:38 PM 35.1006 -77.9275 218° Southwest 423 487 40,000  Level Washington Center
Mon 02:48:38 PM 35.0111 -78.0189 220° Southwest 423 487 40,000  Level Washington Center
Mon 02:49:38 PM 34.9194 -78.1072 218° Southwest 423 487 40,000  Level Washington Center
Mon 02:51:51 PM 34.7192 -78.3108 220° Southwest 424 488 40,000  Level Jacksonville Center
Mon 02:52:51 PM 34.6303 -78.3964 218° Southwest 419 482 40,000  Level Jacksonville Center
Mon 02:53:52 PM 34.5475 -78.4689 216° Southwest 414 476 40,000  Level Jacksonville Center
Mon 02:54:51 PM 34.4569 -78.5664 222° Southwest 414 476 40,000  Level Jacksonville Center
Mon 02:55:51 PM 34.3642 -78.6567 219° Southwest 419 482 40,000  Level Jacksonville Center
Mon 02:56:52 PM 34.2731 -78.7417 218° Southwest 419 482 40,000  Level Jacksonville Center
Mon 02:57:51 PM 34.1881 -78.8258 219° Southwest 419 482 40,000  Level Jacksonville Center
Mon 02:58:51 PM 34.0928 -78.9131 217° Southwest 419 482 40,000  Level Jacksonville Center
Mon 02:59:52 PM 34.0017 -79.0000 218° Southwest 419 482 40,000  Level Jacksonville Center
Mon 03:00:51 PM 33.9125 -79.0839 218° Southwest 424 488 40,000  Level Jacksonville Center
Mon 03:01:51 PM 33.8192 -79.1731 218° Southwest 424 488 40,000  Level Jacksonville Center
Mon 03:02:52 PM 33.7297 -79.2592 219° Southwest 424 488 40,000  Level Jacksonville Center
Mon 03:03:51 PM 33.6403 -79.3400 217° Southwest 419 482 40,000  Level Jacksonville Center
Mon 03:04:51 PM 33.5489 -79.4261 218° Southwest 419 482 40,000  Level Jacksonville Center
Mon 03:05:52 PM 33.4614 -79.5117 219° Southwest 419 482 40,000  Level Jacksonville Center
Mon 03:06:52 PM 33.3717 -79.5947 218° Southwest 419 482 40,000  Level Jacksonville Center
Mon 03:07:51 PM 33.2842 -79.6775 218° Southwest 413 475 40,000  Level Jacksonville Center
Mon 03:08:52 PM 33.1944 -79.7600 218° Southwest 413 475 40,000  Level Jacksonville Center
Mon 03:09:51 PM 33.1047 -79.8425 218° Southwest 413 475 40,000  Level Jacksonville Center
Mon 03:10:51 PM 33.0147 -79.9247 217° Southwest 413 475 40,000  Level Jacksonville Center
Mon 03:11:52 PM 32.9250 -80.0094 218° Southwest 413 475 40,000  Level Jacksonville Center
Mon 03:12:51 PM 32.8264 -80.0842 212° Southwest 418 481 40,000  Level Jacksonville Center
Mon 03:13:51 PM 32.7278 -80.1589 213° Southwest 424 488 40,000  Level Jacksonville Center
Mon 03:14:51 PM 32.6272 -80.2336 212° Southwest 424 488 40,000  Level Jacksonville Center
Mon 03:15:52 PM 32.5386 -80.3003 212° Southwest 429 494 40,000  Level Jacksonville Center
Mon 03:16:51 PM 32.4419 -80.3719 212° Southwest 423 487 40,000  Level Jacksonville Center
Mon 03:17:52 PM 32.3433 -80.4433 211° Southwest 423 487 40,000  Level Jacksonville Center
Mon 03:18:51 PM 32.2444 -80.5150 212° Southwest 423 487 40,000  Level Jacksonville Center
Mon 03:19:51 PM 32.1372 -80.5936 212° Southwest 423 487 40,000  Level Jacksonville Center
Mon 03:20:52 PM 32.0406 -80.6647 212° Southwest 417 480 40,000  Level Jacksonville Center
Mon 03:21:51 PM 31.9519 -80.7306 212° Southwest 417 480 40,000  Level Jacksonville Center
Mon 03:22:51 PM 31.8425 -80.8089 211° Southwest 427 491 40,000  Level Jacksonville Center
Mon 03:23:52 PM 31.7433 -80.8794 211° Southwest 422 486 40,000  Level Jacksonville Center
Mon 03:24:51 PM 31.6525 -80.9425 211° Southwest 422 486 40,000  Level Jacksonville Center
Mon 03:25:51 PM 31.5367 -81.0083 206° Southwest 422 486 40,000  Level Jacksonville Center
Mon 03:26:51 PM 31.4242 -81.0253 187° South 440 506 40,000  Level Jacksonville Center
Mon 03:27:51 PM 31.2889 -81.0497 189° South 457 526 40,000  Level Jacksonville Center
Mon 03:28:51 PM 31.1658 -81.0619 185° South 451 519 40,000  Level Jacksonville Center
Mon 03:29:52 PM 31.0428 -81.0667 182° South 456 525 40,000 -100 Level Jacksonville Center
Mon 03:30:51 PM 30.9175 -81.0692 181° South 456 525 39,800 -1,261 Descending Jacksonville Center
Mon 03:31:51 PM 30.7983 -81.0714 181° South 444 511 37,500 -2,529 Descending Jacksonville Center
Mon 03:32:52 PM 30.6733 -81.0739 181° South 443 510 34,700 -1,750 Descending Jacksonville Center
Mon 03:33:51 PM 30.5481 -81.0786 182° South 443 510 34,000 -756 Descending Jacksonville Center
Mon 03:34:51 PM 30.4228 -81.0836 182° South 448 516 33,200 -893 Descending Jacksonville Center
Mon 03:35:52 PM 30.2956 -81.0883 182° South 453 521 32,200 -1,000 Descending Jacksonville Center
Mon 03:36:51 PM 30.1681 -81.0906 181° South 459 528 31,200 -1,008 Descending Jacksonville Center
Mon 03:37:51 PM 30.0450 -81.0953 182° South 454 522 30,200 -1,041 Descending Jacksonville Center
Mon 03:38:52 PM 29.9200 -81.1000 182° South 449 517 29,100 -1,650 Descending Jacksonville Center
Mon 03:39:51 PM 29.7989 -81.1000 180° South 444 511 26,900 -2,250 Descending Jacksonville Center
Mon 03:40:52 PM 29.6842 -81.1067 183° South 434 499 24,600 -2,281 Descending Jacksonville Center
Mon 03:41:52 PM 29.5714 -81.1089 181° South 423 487 22,300 -2,168 Descending Jacksonville Center
Mon 03:42:51 PM 29.4628 -81.1108 181° South 405 466 20,300 -2,050 Descending Jacksonville Center
Mon 03:43:52 PM 29.3564 -81.1128 181° South 394 453 18,200 -2,050 Descending Jacksonville Center
Mon 03:44:51 PM 29.2542 -81.1147 181° South 380 437 16,200 -2,050 Descending Jacksonville Center
Mon 03:45:52 PM 29.1539 -81.1044 175° South 375 432 14,100 -1,950 Descending Jacksonville Center
Mon 03:46:51 PM 29.0578 -81.0944 175° South 365 420 12,300 -1,050 Descending Jacksonville Center
Mon 03:47:52 PM 28.9678 -81.0867 176° South 345 397 12,000 -1,000 Descending Jacksonville Center
Mon 03:48:51 PM 28.8883 -81.0714 170° South 317 365 10,300 -1,563 Descending Jacksonville Center
Mon 03:49:51 PM 28.8067 -81.0564 171° South 304 350 8,900 -1,240 Descending Jacksonville Center
Mon 03:50:52 PM 28.7553 -81.1094 222° Southwest 235 270 7,800 -1,000 Descending Jacksonville Center
Mon 03:51:51 PM 28.7356 -81.1878 254° West 227 261 6,900 -1,008 Descending Jacksonville Center
Mon 03:52:51 PM 28.6839 -81.2242 212° Southwest 222 255 5,800 -1,100 Descending Jacksonville Center
Mon 03:53:51 PM 28.6322 -81.2628 213° Southwest 222 255 4,700 -1,161 Descending Jacksonville Center
Mon 03:54:55 PM 28.5833 -81.3000 214° Southwest 190 219 3,400 -1,113 Descending Orlando TRACON
Mon 03:55:55 PM 28.5500 -81.3000 180° South 146 168 2,400 -1,000 Descending Orlando TRACON
Mon 03:56:55 PM 28.5000 -81.3000 180° South 133 153 1,400 -843 Descending Orlando TRACON
Mon 03:57:56 PM 28.4667 -81.3000 180° South 139 160 700 -689 Descending Orlando TRACON
Mon 03:59:00 PM 28.4294 -81.3090 180° South  Level Estimated
Mon 04:06:00 PM 28.4294 -81.3090 180° South  Level Estimated
Mon 04:07:00 PM 28.4294 -81.3090 180° South  Level Estimated
Mon 04:08:00 PM 28.4294 -81.3090 180° South  Level Estimated
Mon 04:09:00 PM 28.4294 -81.3090 180° South  Level Estimated

Login

Don't have an account? Register now (free) for customized features, flight alerts, and more!